createdAt,value
2023-02-04T00:00:50.670Z,8.00
2023-02-04T00:03:20.240Z,8.00
2023-02-04T00:05:49.601Z,8.00
2023-02-04T00:08:19.644Z,8.00
2023-02-04T00:10:48.869Z,8.00
2023-02-04T00:13:20.507Z,8.00
2023-02-04T00:15:49.561Z,8.00
2023-02-04T00:18:18.872Z,8.10
2023-02-04T00:20:48.517Z,8.10
2023-02-04T00:23:15.453Z,8.10
2023-02-04T00:25:44.829Z,8.20
2023-02-04T00:28:11.831Z,8.20
2023-02-04T00:30:43.214Z,8.20
2023-02-04T00:33:10.136Z,8.30
2023-02-04T00:35:46.165Z,8.30
2023-02-04T00:38:18.491Z,8.40
2023-02-04T00:40:49.333Z,8.40
2023-02-04T00:43:18.629Z,8.50
2023-02-04T00:45:45.719Z,8.50
2023-02-04T00:48:14.892Z,8.50
2023-02-04T00:50:43.994Z,8.50
2023-02-04T00:53:11.443Z,8.50
2023-02-04T00:55:38.390Z,8.60
2023-02-04T00:58:05.358Z,8.60
2023-02-04T01:00:36.924Z,8.60
2023-02-04T01:03:09.282Z,8.60
2023-02-04T01:05:36.284Z,8.60
2023-02-04T01:08:07.253Z,8.60
2023-02-04T01:10:41.109Z,8.60
2023-02-04T01:13:13.504Z,8.60
2023-02-04T01:15:45.115Z,8.60
2023-02-04T01:18:17.285Z,8.60
2023-02-04T01:20:46.780Z,8.60
2023-02-04T01:23:16.394Z,8.50
2023-02-04T01:25:45.856Z,8.50
2023-02-04T01:28:17.537Z,8.40
2023-02-04T01:30:44.600Z,8.40
2023-02-04T01:33:14.156Z,8.40
2023-02-04T01:35:44.164Z,8.40
2023-02-04T01:38:11.100Z,8.30
2023-02-04T01:40:38.062Z,8.30
2023-02-04T01:43:07.529Z,8.30
2023-02-04T01:45:36.943Z,8.30
2023-02-04T01:48:04.261Z,8.30
2023-02-04T01:50:35.933Z,8.30
2023-02-04T01:53:02.904Z,8.30
2023-02-04T01:55:34.105Z,8.30
2023-02-04T01:58:03.206Z,8.30
2023-02-04T02:00:32.463Z,8.30
2023-02-04T02:03:03.477Z,8.20
2023-02-04T02:05:33.089Z,8.20
2023-02-04T02:08:03.477Z,8.20
2023-02-04T02:10:33.678Z,8.20
2023-02-04T02:13:00.716Z,8.10
2023-02-04T02:15:30.653Z,8.10
2023-02-04T02:17:57.695Z,8.10
2023-02-04T02:20:29.864Z,8.10
2023-02-04T02:23:34.623Z,8.10
2023-02-04T02:26:01.559Z,8.10
2023-02-04T02:28:30.948Z,8.10
2023-02-04T02:31:03.101Z,8.10
2023-02-04T02:33:34.840Z,8.10
2023-02-04T02:36:01.783Z,8.20
2023-02-04T02:38:30.957Z,8.20
2023-02-04T02:40:57.906Z,8.20
2023-02-04T02:43:28.338Z,8.20
2023-02-04T02:45:56.201Z,8.30
2023-02-04T02:48:25.420Z,8.30
2023-02-04T02:50:54.535Z,8.30
2023-02-04T02:53:27.151Z,8.30
2023-02-04T02:55:56.285Z,8.30
2023-02-04T02:58:34.179Z,8.30
2023-02-04T03:01:01.412Z,8.30
2023-02-04T03:03:30.353Z,8.30
2023-02-04T03:06:24.466Z,8.40
2023-02-04T03:08:56.058Z,8.30
2023-02-04T03:11:23.459Z,8.40
2023-02-04T03:13:53.113Z,8.30
2023-02-04T03:16:20.042Z,8.40
2023-02-04T03:18:47.259Z,8.40
2023-02-04T03:21:16.719Z,8.40
2023-02-04T03:23:43.628Z,8.40
2023-02-04T03:26:17.745Z,8.40
2023-02-04T03:28:49.740Z,8.40
2023-02-04T03:31:16.889Z,8.40
2023-02-04T03:33:46.178Z,8.40
2023-02-04T03:36:15.602Z,8.40
2023-02-04T03:38:47.465Z,8.40
2023-02-04T03:41:16.621Z,8.40
2023-02-04T03:43:48.468Z,8.40
2023-02-04T03:46:17.832Z,8.40
2023-02-04T03:48:44.748Z,8.40
2023-02-04T03:51:14.203Z,8.40
2023-02-04T03:53:45.706Z,8.30
2023-02-04T03:56:17.917Z,8.30
2023-02-04T03:58:47.170Z,8.30
2023-02-04T04:01:16.637Z,8.30
2023-02-04T04:03:48.080Z,8.30
2023-02-04T04:06:17.348Z,8.30
2023-02-04T04:08:48.962Z,8.30
2023-02-04T04:11:15.925Z,8.30
2023-02-04T04:13:45.314Z,8.30
2023-02-04T04:16:12.253Z,8.30
2023-02-04T04:18:41.442Z,8.30
2023-02-04T04:21:08.325Z,8.30
2023-02-04T04:23:37.917Z,8.30
2023-02-04T04:26:10.489Z,8.30
2023-02-04T04:28:37.316Z,8.30
2023-02-04T04:31:06.773Z,8.30
2023-02-04T04:33:33.768Z,8.30
2023-02-04T04:36:00.775Z,8.30
2023-02-04T04:38:29.912Z,8.30
2023-02-04T04:40:56.840Z,8.30
2023-02-04T04:43:26.055Z,8.30
2023-02-04T04:45:52.976Z,8.30
2023-02-04T04:48:21.566Z,8.30
2023-02-04T04:50:53.414Z,8.30
2023-02-04T04:53:25.725Z,8.30
2023-02-04T04:55:55.093Z,8.30
2023-02-04T04:58:25.070Z,8.30
2023-02-04T05:00:52.088Z,8.30
2023-02-04T05:03:21.693Z,8.30
2023-02-04T05:05:50.718Z,8.30
2023-02-04T05:08:19.360Z,8.30
2023-02-04T05:10:51.292Z,8.30
2023-02-04T05:13:18.234Z,8.30
2023-02-04T05:15:45.147Z,8.30
2023-02-04T05:18:14.326Z,8.30
2023-02-04T05:20:43.605Z,8.30
2023-02-04T05:23:10.529Z,8.30
2023-02-04T05:25:37.465Z,8.30
2023-02-04T05:28:07.006Z,8.30
2023-02-04T05:30:36.460Z,8.30
2023-02-04T05:33:05.629Z,8.30
2023-02-04T05:35:32.537Z,8.30
2023-02-04T05:37:59.510Z,8.30
2023-02-04T05:40:28.682Z,8.30
2023-02-04T05:42:58.122Z,8.30
2023-02-04T05:45:25.084Z,8.30
2023-02-04T05:47:54.658Z,8.30
2023-02-04T05:50:23.941Z,8.30
2023-02-04T05:53:08.171Z,8.30
2023-02-04T05:55:35.153Z,8.30
2023-02-04T05:58:02.099Z,8.30
2023-02-04T06:00:31.382Z,8.20
2023-02-04T06:03:03.226Z,8.20
2023-02-04T06:05:32.692Z,8.20
2023-02-04T06:07:59.663Z,8.20
2023-02-04T06:10:31.689Z,8.30
2023-02-04T06:12:58.728Z,8.30
2023-02-04T06:15:25.690Z,8.30
2023-02-04T06:17:54.846Z,8.20
2023-02-04T06:20:24.134Z,8.30
2023-02-04T06:22:54.526Z,8.20
2023-02-04T06:25:26.382Z,8.20
2023-02-04T06:27:55.864Z,8.20
2023-02-04T06:30:27.479Z,8.20
2023-02-04T06:32:56.935Z,8.20
2023-02-04T06:35:26.207Z,8.20
2023-02-04T06:37:53.191Z,8.20
2023-02-04T06:40:25.357Z,8.20
2023-02-04T06:42:54.367Z,8.20
2023-02-04T06:45:26.797Z,8.20
2023-02-04T06:47:53.741Z,8.20
2023-02-04T06:50:20.691Z,8.20
2023-02-04T06:52:52.678Z,8.20
2023-02-04T06:55:21.738Z,8.20
2023-02-04T06:57:50.876Z,8.20
2023-02-04T07:00:20.427Z,8.20
2023-02-04T07:02:49.598Z,8.20
2023-02-04T07:05:16.574Z,8.20
2023-02-04T07:07:48.237Z,8.20
2023-02-04T07:10:17.523Z,8.20
2023-02-04T07:12:44.440Z,8.20
2023-02-04T07:15:11.324Z,8.10
2023-02-04T07:17:40.477Z,8.10
2023-02-04T07:20:07.976Z,8.10
2023-02-04T07:22:42.557Z,8.10
2023-02-04T07:25:10.201Z,8.10
2023-02-04T07:27:40.144Z,8.10
2023-02-04T07:30:07.619Z,8.10
2023-02-04T07:32:34.726Z,8.10
2023-02-04T07:35:04.112Z,8.10
2023-02-04T07:37:31.041Z,8.10
2023-02-04T07:39:58.082Z,8.10
2023-02-04T07:42:25.097Z,8.20
2023-02-04T07:45:02.879Z,8.10
2023-02-04T07:47:32.016Z,8.20
2023-02-04T07:50:03.927Z,8.10
2023-02-04T07:52:36.114Z,8.10
2023-02-04T07:55:06.597Z,8.10
2023-02-04T07:57:38.772Z,8.10
2023-02-04T08:00:06.734Z,8.10
2023-02-04T08:02:41.883Z,8.10
2023-02-04T08:05:11.366Z,8.10
2023-02-04T08:07:42.740Z,8.10
2023-02-04T08:10:14.237Z,8.20
2023-02-04T08:12:48.848Z,8.20
2023-02-04T08:15:15.844Z,8.20
2023-02-04T08:17:42.765Z,8.20
2023-02-04T08:20:16.658Z,8.30
2023-02-04T08:22:45.812Z,8.20
2023-02-04T08:25:18.428Z,8.30
2023-02-04T08:27:47.530Z,8.30
2023-02-04T08:30:14.800Z,8.30
2023-02-04T08:32:41.843Z,8.30
2023-02-04T08:35:11.386Z,8.40
2023-02-04T08:37:40.928Z,8.40
2023-02-04T08:40:08.104Z,8.40
2023-02-04T08:42:35.021Z,8.40
2023-02-04T08:45:02.052Z,8.40
2023-02-04T08:47:33.631Z,8.40
2023-02-04T08:50:05.694Z,8.50
2023-02-04T08:52:32.707Z,8.50
2023-02-04T08:54:59.631Z,8.50
2023-02-04T08:57:31.233Z,8.50
2023-02-04T08:59:58.178Z,8.50
2023-02-04T09:02:27.387Z,8.60
2023-02-04T09:04:59.236Z,8.60
2023-02-04T09:07:28.690Z,8.60
2023-02-04T09:10:00.145Z,8.60
2023-02-04T09:12:29.297Z,8.60
2023-02-04T09:14:56.225Z,8.60
2023-02-04T09:17:23.223Z,8.60
2023-02-04T09:19:50.132Z,8.60
2023-02-04T09:22:19.331Z,8.60
2023-02-04T09:24:48.895Z,8.60
2023-02-04T09:27:15.867Z,8.60
2023-02-04T09:29:44.957Z,8.60
2023-02-04T09:32:14.432Z,8.60
2023-02-04T09:34:43.781Z,8.60
2023-02-04T09:37:10.702Z,8.60
2023-02-04T09:39:39.920Z,8.70
2023-02-04T09:42:06.900Z,8.80
2023-02-04T09:44:36.105Z,8.80
2023-02-04T09:47:02.997Z,8.80
2023-02-04T09:49:29.982Z,8.80
2023-02-04T09:52:01.440Z,8.80
2023-02-04T09:54:28.388Z,8.80
2023-02-04T09:56:55.519Z,8.90
2023-02-04T09:59:29.985Z,8.90
2023-02-04T10:02:03.399Z,9.00
2023-02-04T10:04:34.788Z,9.00
2023-02-04T10:07:05.657Z,9.00
2023-02-04T10:09:32.655Z,9.00
2023-02-04T10:12:02.116Z,9.00
2023-02-04T10:14:29.107Z,9.00
2023-02-04T10:17:04.827Z,9.00
2023-02-04T10:19:36.825Z,9.10
2023-02-04T10:22:03.873Z,9.00
2023-02-04T10:24:34.661Z,9.00
2023-02-04T10:27:16.177Z,9.00
2023-02-04T10:29:59.265Z,9.00
2023-02-04T10:32:32.431Z,9.00
2023-02-04T10:35:02.587Z,9.00
2023-02-04T10:37:30.764Z,9.00
2023-02-04T10:40:00.212Z,9.00
2023-02-04T10:42:28.894Z,9.10
2023-02-04T10:44:58.184Z,9.20
2023-02-04T10:47:31.603Z,9.20
2023-02-04T10:50:07.796Z,9.20
2023-02-04T10:52:39.249Z,9.20
2023-02-04T10:55:12.599Z,9.20
2023-02-04T10:57:39.724Z,9.20
2023-02-04T11:00:15.072Z,9.20
2023-02-04T11:02:53.306Z,9.20
2023-02-04T11:05:29.275Z,9.20
2023-02-04T11:07:56.188Z,9.20
2023-02-04T11:10:31.378Z,9.10
2023-02-04T11:12:58.460Z,9.10
2023-02-04T11:15:38.747Z,9.20
2023-02-04T11:18:27.498Z,9.20
2023-02-04T11:20:56.550Z,9.20
2023-02-04T11:23:29.865Z,9.20
2023-02-04T11:26:13.502Z,9.20
2023-02-04T11:28:47.733Z,9.20
2023-02-04T11:31:21.692Z,9.40
2023-02-04T11:33:49.441Z,9.40
2023-02-04T11:36:16.812Z,9.50
2023-02-04T11:38:48.006Z,9.50
2023-02-04T11:41:33.843Z,9.60
2023-02-04T11:44:00.817Z,9.60
2023-02-04T11:46:30.285Z,9.60
2023-02-04T11:48:58.350Z,9.60
2023-02-04T11:51:34.732Z,9.70
2023-02-04T11:54:06.580Z,9.80
2023-02-04T11:56:35.782Z,9.80
2023-02-04T11:59:09.047Z,9.80
2023-02-04T12:01:35.995Z,9.80
2023-02-04T12:04:05.231Z,9.80
2023-02-04T12:06:37.978Z,10.00
2023-02-04T12:09:09.082Z,9.90
2023-02-04T12:11:36.105Z,9.90
2023-02-04T12:14:10.208Z,9.90
2023-02-04T12:16:53.484Z,9.90
2023-02-04T12:19:20.475Z,10.00
2023-02-04T12:21:49.646Z,10.00
2023-02-04T12:24:16.580Z,10.00
2023-02-04T12:26:48.170Z,10.00
2023-02-04T12:29:19.978Z,10.00
2023-02-04T12:31:49.073Z,9.90
2023-02-04T12:34:18.394Z,9.80
2023-02-04T12:36:47.442Z,9.70
2023-02-04T12:39:14.407Z,9.70
2023-02-04T12:41:41.346Z,9.60
2023-02-04T12:44:08.276Z,9.60
2023-02-04T12:46:37.559Z,9.60
2023-02-04T12:49:08.303Z,9.60
2023-02-04T12:51:36.516Z,9.60
2023-02-04T12:54:08.166Z,9.60
2023-02-04T12:56:35.186Z,9.50
2023-02-04T12:59:05.713Z,9.50
2023-02-04T13:01:35.049Z,9.50
2023-02-04T13:04:04.446Z,9.60
2023-02-04T13:06:33.880Z,9.60
2023-02-04T13:09:00.814Z,9.50
2023-02-04T13:11:29.800Z,9.50
2023-02-04T13:13:56.736Z,9.50
2023-02-04T13:16:24.875Z,9.50
2023-02-04T13:18:51.884Z,9.50
2023-02-04T13:21:21.086Z,9.50
2023-02-04T13:23:50.603Z,9.50
2023-02-04T13:26:19.683Z,9.50
2023-02-04T13:28:51.492Z,9.40
2023-02-04T13:31:18.479Z,9.40
2023-02-04T13:33:45.478Z,9.40
2023-02-04T13:36:14.655Z,9.40
2023-02-04T13:38:41.650Z,9.30
2023-02-04T13:41:08.553Z,9.30
2023-02-04T13:43:35.454Z,9.30
2023-02-04T13:46:04.295Z,9.40
2023-02-04T13:48:31.310Z,9.40
2023-02-04T13:50:58.420Z,9.40
2023-02-04T13:53:31.124Z,9.40
2023-02-04T13:55:58.374Z,9.40
2023-02-04T13:58:27.634Z,9.30
2023-02-04T14:00:59.294Z,9.30
2023-02-04T14:03:27.045Z,9.30
2023-02-04T14:05:56.312Z,9.30
2023-02-04T14:08:23.764Z,9.30
2023-02-04T14:10:53.196Z,9.30
2023-02-04T14:13:23.143Z,9.20
2023-02-04T14:15:52.380Z,9.20
2023-02-04T14:18:21.851Z,9.20
2023-02-04T14:20:51.310Z,9.20
2023-02-04T14:23:20.576Z,9.20
2023-02-04T14:25:47.508Z,9.10
2023-02-04T14:28:14.479Z,9.00
2023-02-04T14:30:43.661Z,9.00
2023-02-04T14:33:18.204Z,9.00
2023-02-04T14:35:47.387Z,8.90
2023-02-04T14:38:17.870Z,8.90
2023-02-04T14:40:47.217Z,8.90
2023-02-04T14:43:14.219Z,8.90
2023-02-04T14:45:41.421Z,8.90
2023-02-04T14:48:10.866Z,8.90
2023-02-04T14:50:37.828Z,8.90
2023-02-04T14:53:06.968Z,8.90
2023-02-04T14:55:33.896Z,8.80
2023-02-04T14:58:03.043Z,8.80
2023-02-04T15:00:35.038Z,8.80
2023-02-04T15:03:02.064Z,8.90
2023-02-04T15:05:31.286Z,8.80
2023-02-04T15:08:00.624Z,8.80
2023-02-04T15:10:28.525Z,8.80
2023-02-04T15:12:55.904Z,8.80
2023-02-04T15:15:22.834Z,8.80
2023-02-04T15:17:52.218Z,8.80
2023-02-04T15:20:23.820Z,8.80
2023-02-04T15:22:56.339Z,8.80
2023-02-04T15:25:23.738Z,8.80
2023-02-04T15:27:52.985Z,8.80
2023-02-04T15:30:22.170Z,8.70
2023-02-04T15:32:54.579Z,8.70
2023-02-04T15:35:26.785Z,8.70
2023-02-04T15:37:56.212Z,8.60
2023-02-04T15:40:25.705Z,8.60
2023-02-04T15:42:55.432Z,8.60
2023-02-04T15:45:25.134Z,8.60
2023-02-04T15:47:56.570Z,8.60
2023-02-04T15:50:25.788Z,8.60
2023-02-04T15:52:54.839Z,8.60
2023-02-04T15:55:26.200Z,8.60
2023-02-04T15:57:56.180Z,8.50
2023-02-04T16:00:25.284Z,8.60
2023-02-04T16:02:52.308Z,8.60
2023-02-04T16:05:21.752Z,8.60
2023-02-04T16:07:50.794Z,8.60
2023-02-04T16:10:18.483Z,8.60
2023-02-04T16:12:47.334Z,8.60
2023-02-04T16:15:16.851Z,8.60
2023-02-04T16:17:48.996Z,8.60
2023-02-04T16:20:18.531Z,8.60
2023-02-04T16:22:47.765Z,8.60
2023-02-04T16:25:17.062Z,8.60
2023-02-04T16:27:44.033Z,8.60
2023-02-04T16:30:12.103Z,8.60
2023-02-04T16:32:39.253Z,8.60
2023-02-04T16:35:08.595Z,8.60
2023-02-04T16:37:37.737Z,8.60
2023-02-04T16:40:05.839Z,8.60
2023-02-04T16:42:37.427Z,8.60
2023-02-04T16:45:04.548Z,8.50
2023-02-04T16:47:33.992Z,8.50
2023-02-04T16:50:01.133Z,8.50
2023-02-04T16:52:31.695Z,8.40
2023-02-04T16:54:58.952Z,8.40
2023-02-04T16:57:30.581Z,8.40
2023-02-04T17:00:02.697Z,8.40
2023-02-04T17:02:34.687Z,8.40
2023-02-04T17:05:01.707Z,8.40
2023-02-04T17:07:30.861Z,8.40
2023-02-04T17:09:57.786Z,8.40
2023-02-04T17:12:24.782Z,8.40
2023-02-04T17:14:53.815Z,8.40
2023-02-04T17:17:22.888Z,8.40
2023-02-04T17:19:49.814Z,8.40
2023-02-04T17:22:18.965Z,8.30
2023-02-04T17:24:45.894Z,8.40
2023-02-04T17:27:13.039Z,8.40
2023-02-04T17:29:42.570Z,8.40
2023-02-04T17:32:12.489Z,8.30
2023-02-04T17:34:41.517Z,8.30
2023-02-04T17:37:10.716Z,8.30
2023-02-04T17:39:37.673Z,8.30
2023-02-04T17:42:08.961Z,8.30
2023-02-04T17:44:35.876Z,8.30
2023-02-04T17:47:05.366Z,8.30
2023-02-04T17:49:35.138Z,8.20
2023-02-04T17:52:06.614Z,8.30
2023-02-04T17:54:36.557Z,8.30
2023-02-04T17:57:14.867Z,8.30
2023-02-04T17:59:41.798Z,8.20
2023-02-04T18:02:19.720Z,8.20
2023-02-04T18:04:47.105Z,8.20
2023-02-04T18:07:14.056Z,8.20
2023-02-04T18:09:43.212Z,8.20
2023-02-04T18:12:18.993Z,8.20
2023-02-04T18:14:48.456Z,8.20
2023-02-04T18:17:16.133Z,8.20
2023-02-04T18:19:45.435Z,8.20
2023-02-04T18:22:17.321Z,8.10
2023-02-04T18:24:45.869Z,8.10
2023-02-04T18:27:24.482Z,8.10
2023-02-04T18:29:55.610Z,8.10
2023-02-04T18:32:23.517Z,8.10
2023-02-04T18:34:57.377Z,8.10
2023-02-04T18:37:40.628Z,8.10
2023-02-04T18:40:10.345Z,8.10
2023-02-04T18:42:44.848Z,8.10
2023-02-04T18:45:17.060Z,8.10
2023-02-04T18:47:44.637Z,8.10
2023-02-04T18:50:31.219Z,8.10
2023-02-04T18:53:08.048Z,8.10
2023-02-04T18:55:40.882Z,8.10
2023-02-04T18:58:16.076Z,8.10
2023-02-04T19:01:17.031Z,8.10
2023-02-04T19:03:56.256Z,8.10
2023-02-04T19:06:39.578Z,8.00
2023-02-04T19:09:13.384Z,8.10
2023-02-04T19:11:51.197Z,8.10
2023-02-04T19:14:24.586Z,8.10
2023-02-04T19:16:56.646Z,8.00
2023-02-04T19:19:45.815Z,8.00
2023-02-04T19:22:37.557Z,8.00
2023-02-04T19:25:29.375Z,8.00
2023-02-04T19:27:58.086Z,8.00
2023-02-04T19:30:28.095Z,8.10
2023-02-04T19:32:58.549Z,8.10
2023-02-04T19:35:29.877Z,8.00
2023-02-04T19:38:02.974Z,8.00
2023-02-04T19:40:31.166Z,8.00
2023-02-04T19:43:16.562Z,8.00
2023-02-04T19:45:46.169Z,8.00
2023-02-04T19:48:37.655Z,8.00
2023-02-04T19:51:19.190Z,8.00
2023-02-04T19:53:51.669Z,8.00
2023-02-04T19:56:35.723Z,8.00
2023-02-04T19:59:33.969Z,8.00
2023-02-04T20:02:07.113Z,8.00
2023-02-04T20:04:45.876Z,8.00
2023-02-04T20:07:20.117Z,8.00
2023-02-04T20:09:52.300Z,8.00
2023-02-04T20:12:21.714Z,8.00
2023-02-04T20:14:54.936Z,8.00
2023-02-04T20:17:41.020Z,8.00
2023-02-04T20:20:29.941Z,8.00
2023-02-04T20:23:06.091Z,8.00
2023-02-04T20:25:37.146Z,8.00
2023-02-04T20:28:31.047Z,8.00
2023-02-04T20:31:03.392Z,8.00
2023-02-04T20:33:49.331Z,8.00
2023-02-04T20:36:33.212Z,8.00
2023-02-04T20:39:09.353Z,8.00
2023-02-04T20:41:40.927Z,8.00
2023-02-04T20:44:21.745Z,8.00
2023-02-04T20:46:48.684Z,8.00
2023-02-04T20:49:25.469Z,8.00
2023-02-04T20:51:56.017Z,8.00
2023-02-04T20:54:25.041Z,8.00
2023-02-04T20:56:54.425Z,8.00
2023-02-04T20:59:27.631Z,8.00
2023-02-04T21:01:56.828Z,8.00
2023-02-04T21:04:28.044Z,8.00
2023-02-04T21:06:55.801Z,8.00
2023-02-04T21:14:03.577Z,8.00
2023-02-04T21:16:30.861Z,8.00
2023-02-04T21:18:57.939Z,8.00
2023-02-04T21:21:25.874Z,8.00
2023-02-04T21:24:01.169Z,8.00
2023-02-04T21:26:30.148Z,8.00
2023-02-04T21:28:57.118Z,8.00
2023-02-04T21:31:27.733Z,8.00
2023-02-04T21:33:57.420Z,8.00
2023-02-04T21:36:30.355Z,8.00
2023-02-04T21:38:59.689Z,8.00
2023-02-04T21:41:28.961Z,8.00
2023-02-04T21:43:56.168Z,8.10
2023-02-04T21:46:30.441Z,8.00
2023-02-04T21:48:59.835Z,8.10
2023-02-04T21:52:12.455Z,8.10
2023-02-04T21:54:39.829Z,8.10
2023-02-04T21:57:08.993Z,8.10
2023-02-04T21:59:38.787Z,8.10
2023-02-04T22:02:05.772Z,8.10
2023-02-04T22:04:35.234Z,8.00
2023-02-04T22:07:04.253Z,8.00
2023-02-04T22:09:31.159Z,8.00
2023-02-04T22:11:58.078Z,8.00
2023-02-04T22:14:43.483Z,8.00
2023-02-04T22:17:12.594Z,7.90
2023-02-04T22:19:39.541Z,8.00
2023-02-04T22:22:09.001Z,8.00
2023-02-04T22:24:41.135Z,8.00
2023-02-04T22:27:11.061Z,8.00
2023-02-04T22:29:38.060Z,8.00
2023-02-04T22:32:07.628Z,8.00
2023-02-04T22:34:34.774Z,8.00
2023-02-04T22:37:03.820Z,8.00
2023-02-04T22:39:30.837Z,8.00
2023-02-04T22:42:00.131Z,8.00
2023-02-04T22:44:29.375Z,8.00
2023-02-04T22:47:05.267Z,8.00
2023-02-04T22:49:35.848Z,8.00
2023-02-04T22:52:03.476Z,8.10
2023-02-04T22:54:30.752Z,8.10
2023-02-04T22:57:04.254Z,8.10
2023-02-04T22:59:34.243Z,8.10
2023-02-04T23:02:03.488Z,8.10
2023-02-04T23:04:30.620Z,8.10
2023-02-04T23:07:04.662Z,8.10
2023-02-04T23:09:32.429Z,8.10
2023-02-04T23:12:12.714Z,8.10
2023-02-04T23:14:47.110Z,8.10
2023-02-04T23:17:14.912Z,8.10
2023-02-04T23:20:01.969Z,8.10
2023-02-04T23:22:37.481Z,8.10
2023-02-04T23:25:06.417Z,8.10
2023-02-04T23:27:35.782Z,8.10
2023-02-04T23:30:05.780Z,8.10
2023-02-04T23:32:32.751Z,8.10
2023-02-04T23:34:59.935Z,8.10
2023-02-04T23:37:26.970Z,8.10
2023-02-04T23:39:53.930Z,8.10
2023-02-04T23:42:20.879Z,8.10
2023-02-04T23:44:47.875Z,8.10
2023-02-04T23:47:19.361Z,8.20
2023-02-04T23:49:51.161Z,8.10
2023-02-04T23:52:22.872Z,8.20
2023-02-04T23:54:52.380Z,8.20
2023-02-04T23:57:23.996Z,8.10
2023-02-04T23:59:51.045Z,8.10
